Time;durP1;ratioP1;P1;durP2;ratioP2;P2;SDS_P1;SDS_P2;PMS_P1;PMS_P2;Temp;Humidity;BMP_temperature;BMP_pressure;BME280_temperature;BME280_humidity;BME280_pressure;Samples;Min_cycle;Max_cycle;Signal;HPM_P1;HPM_P2
2022/10/23 00:01:32;;;;;;;17.13;12.40;;;11.30;99.90;;;;;;2603051;54;20022;31
2022/10/23 00:04:08;;;;;;;18.67;11.68;;;11.30;99.90;;;;;;2622039;46;20053;31
2022/10/23 00:06:42;;;;;;;21.08;17.23;;;11.20;99.90;;;;;;2621284;46;20038;31
2022/10/23 00:09:20;;;;;;;19.55;15.90;;;11.20;99.90;;;;;;2621548;46;20027;31
2022/10/23 00:11:54;;;;;;;19.20;12.83;;;11.40;99.90;;;;;;2603013;54;20816;31
2022/10/23 00:14:28;;;;;;;21.75;17.60;;;11.20;99.90;;;;;;2603050;54;20037;31
2022/10/23 00:17:02;;;;;;;14.30;12.05;;;11.20;99.90;;;;;;2621109;47;20975;31
2022/10/23 00:19:36;;;;;;;21.10;16.60;;;11.20;99.90;;;;;;2604728;47;20892;31
2022/10/23 00:22:10;;;;;;;18.50;14.75;;;11.10;99.90;;;;;;2603113;54;20031;31
2022/10/23 00:24:47;;;;;;;27.13;18.85;;;11.20;99.90;;;;;;2603251;54;20050;31
2022/10/23 00:27:21;;;;;;;25.60;19.15;;;11.00;99.90;;;;;;2602918;54;20034;31
2022/10/23 00:29:56;;;;;;;16.77;12.88;;;11.00;99.90;;;;;;2602807;54;20085;31
2022/10/23 00:32:30;;;;;;;19.95;15.00;;;11.00;99.90;;;;;;2602916;54;20022;31
2022/10/23 00:35:06;;;;;;;18.50;14.77;;;10.90;99.90;;;;;;2602881;54;24953;31
2022/10/23 00:37:40;;;;;;;22.42;16.95;;;10.90;99.90;;;;;;2603143;54;20863;31
2022/10/23 00:40:17;;;;;;;16.30;12.30;;;11.00;99.90;;;;;;2603029;54;20033;31
2022/10/23 00:42:51;;;;;;;14.73;11.93;;;10.80;99.90;;;;;;2602922;54;20750;31
2022/10/23 00:45:26;;;;;;;21.77;14.70;;;11.00;99.90;;;;;;2621563;47;20879;31
2022/10/23 00:48:00;;;;;;;15.38;11.68;;;10.70;99.90;;;;;;2621086;47;20045;31
2022/10/23 00:50:34;;;;;;;14.10;11.27;;;10.70;99.90;;;;;;2621729;47;20057;31
2022/10/23 00:53:08;;;;;;;17.97;13.83;;;10.80;99.90;;;;;;2603047;54;20056;31
2022/10/23 00:55:46;;;;;;;19.75;13.95;;;10.70;99.90;;;;;;2608655;47;20797;31
2022/10/23 00:58:21;;;;;;;18.50;13.00;;;10.60;99.90;;;;;;2602722;54;20908;31
2022/10/23 01:00:56;;;;;;;19.33;13.90;;;10.90;99.90;;;;;;2607845;47;21001;31
2022/10/23 01:03:30;;;;;;;15.20;12.43;;;10.60;99.90;;;;;;2602690;54;20038;31
2022/10/23 01:06:06;;;;;;;16.50;13.90;;;10.50;99.90;;;;;;2603192;54;20038;31
2022/10/23 01:08:42;;;;;;;19.55;11.70;;;10.50;99.90;;;;;;2602829;54;20135;31
2022/10/23 01:11:21;;;;;;;19.90;15.50;;;10.50;99.90;;;;;;2621488;47;20026;31
2022/10/23 01:13:59;;;;;;;16.70;13.13;;;10.40;99.90;;;;;;2602956;54;20868;31
2022/10/23 01:19:09;;;;;;;17.40;13.65;;;10.40;99.90;;;;;;2602713;54;20105;31
2022/10/23 01:21:50;;;;;;;19.60;13.40;;;10.30;99.90;;;;;;2603372;54;20825;31
2022/10/23 01:24:39;;;;;;;25.02;16.80;;;10.40;99.90;;;;;;2603670;54;20042;31
2022/10/23 01:27:22;;;;;;;17.15;12.00;;;10.30;99.90;;;;;;2603639;54;20851;31
2022/10/23 01:30:04;;;;;;;18.85;12.95;;;10.40;99.90;;;;;;2603815;54;20037;31
2022/10/23 01:32:46;;;;;;;14.13;11.48;;;10.40;99.90;;;;;;2603648;54;20126;31
2022/10/23 01:35:23;;;;;;;15.43;11.77;;;10.20;99.90;;;;;;2603466;54;20181;31
2022/10/23 01:38:07;;;;;;;19.15;12.50;;;10.20;99.90;;;;;;2603529;54;20034;31
2022/10/23 01:40:45;;;;;;;13.35;9.75;;;10.10;99.90;;;;;;2603487;54;20109;31
2022/10/23 01:43:22;;;;;;;22.08;12.65;;;10.10;99.90;;;;;;2603815;54;20069;31
2022/10/23 01:45:57;;;;;;;11.80;8.75;;;10.10;99.90;;;;;;2603547;54;20926;31
2022/10/23 01:48:31;;;;;;;8.53;7.07;;;10.10;99.90;;;;;;2603591;54;20875;31
2022/10/23 01:51:07;;;;;;;10.77;7.63;;;10.30;99.90;;;;;;2603550;54;20045;31
2022/10/23 01:53:43;;;;;;;11.60;9.85;;;10.10;99.90;;;;;;2603639;54;20027;31
2022/10/23 01:56:21;;;;;;;13.90;10.80;;;10.10;99.90;;;;;;2603482;54;20963;31
2022/10/23 01:58:58;;;;;;;8.93;6.90;;;10.00;99.90;;;;;;2603345;54;20881;31
2022/10/23 02:01:36;;;;;;;10.68;7.53;;;10.40;99.90;;;;;;2622046;46;20030;31
2022/10/23 02:04:11;;;;;;;15.90;12.33;;;10.50;99.90;;;;;;2603492;54;19946;31
2022/10/23 02:06:45;;;;;;;9.00;7.13;;;9.90;99.90;;;;;;2603415;54;19935;31
2022/10/23 02:09:20;;;;;;;9.52;7.63;;;9.90;99.90;;;;;;2603631;54;20109;31
2022/10/23 02:11:56;;;;;;;10.20;8.20;;;9.90;99.90;;;;;;2620103;46;20027;31
2022/10/23 02:14:34;;;;;;;;;;;9.90;99.90;;;;;;2622522;46;20853;31
2022/10/23 02:17:14;;;;;;;10.18;7.68;;;9.80;99.90;;;;;;2603448;54;19935;31
2022/10/23 02:19:51;;;;;;;11.10;7.95;;;9.80;99.90;;;;;;2603623;54;20022;31
2022/10/23 02:22:28;;;;;;;14.07;11.45;;;9.80;99.90;;;;;;2603364;54;20089;31
2022/10/23 02:25:06;;;;;;;9.85;7.90;;;9.70;99.90;;;;;;2603779;54;20033;31
2022/10/23 02:27:41;;;;;;;14.57;10.82;;;9.70;99.90;;;;;;2603341;54;20045;31
2022/10/23 02:30:19;;;;;;;13.63;9.55;;;9.60;99.90;;;;;;2603452;54;20027;31
2022/10/23 02:33:00;;;;;;;13.25;10.85;;;9.60;99.90;;;;;;2603151;54;20847;31
2022/10/23 02:35:34;;;;;;;11.25;9.35;;;10.00;99.90;;;;;;2603664;54;20026;31
2022/10/23 02:38:36;;;;;;;9.98;7.35;;;9.50;99.90;;;;;;2603488;54;20026;31
2022/10/23 02:41:20;;;;;;;10.82;9.00;;;9.50;99.90;;;;;;2603602;54;20942;31
2022/10/23 02:44:22;;;;;;;13.50;9.52;;;9.50;99.90;;;;;;2603371;54;20025;31
2022/10/23 02:49:35;;;;;;;12.45;9.95;;;9.40;99.90;;;;;;2603377;54;20022;31
2022/10/23 02:52:15;;;;;;;8.07;7.27;;;9.40;99.90;;;;;;2603368;54;20026;31
2022/10/23 02:54:56;;;;;;;;;;;9.40;99.90;;;;;;2603768;54;20049;31
2022/10/23 02:57:32;;;;;;;7.43;6.43;;;9.40;99.90;;;;;;2621638;46;19993;31
2022/10/23 03:00:10;;;;;;;12.20;10.15;;;9.40;99.90;;;;;;2603322;54;20089;31
2022/10/23 03:02:47;;;;;;;11.65;9.65;;;9.40;99.90;;;;;;2603334;54;20049;31
2022/10/23 03:05:25;;;;;;;8.20;6.90;;;9.40;99.90;;;;;;2603396;54;20033;31
2022/10/23 03:08:00;;;;;;;7.85;6.47;;;9.40;99.90;;;;;;2764876;31;20047;31
2022/10/23 03:10:34;;;;;;;8.55;6.35;;;9.60;99.90;;;;;;2603205;54;20022;31
2022/10/23 03:13:08;;;;;;;10.70;9.15;;;9.50;99.90;;;;;;2603320;54;20050;31
2022/10/23 03:15:49;;;;;;;9.73;7.83;;;9.50;99.90;;;;;;2603372;54;20805;31
2022/10/23 03:18:23;;;;;;;10.85;8.52;;;9.50;99.90;;;;;;2603257;54;20027;31
2022/10/23 03:20:59;;;;;;;9.70;7.70;;;9.60;99.90;;;;;;2628142;39;21071;31
2022/10/23 03:23:34;;;;;;;11.93;9.13;;;9.60;99.90;;;;;;2603433;54;20029;31
2022/10/23 03:26:08;;;;;;;12.57;8.97;;;9.60;99.90;;;;;;2603131;54;20057;31
2022/10/23 03:28:47;;;;;;;9.55;7.75;;;10.00;99.90;;;;;;2603165;54;20250;31
2022/10/23 03:31:22;;;;;;;18.70;14.10;;;9.70;99.90;;;;;;2603297;54;20050;31
2022/10/23 03:34:01;;;;;;;17.73;13.40;;;9.70;99.90;;;;;;2621824;46;20030;31
2022/10/23 03:36:43;;;;;;;11.88;9.43;;;9.70;99.90;;;;;;2603097;54;20042;31
2022/10/23 03:39:17;;;;;;;14.98;11.18;;;9.70;99.90;;;;;;2602565;54;20918;31
2022/10/23 03:41:51;;;;;;;13.93;10.10;;;9.70;99.90;;;;;;2603233;54;20027;31
2022/10/23 03:44:29;;;;;;;14.43;11.10;;;9.70;99.90;;;;;;2603009;54;21569;31
2022/10/23 03:47:04;;;;;;;17.60;13.73;;;9.70;99.90;;;;;;2603112;54;20045;31
2022/10/23 03:49:38;;;;;;;16.50;11.60;;;9.70;99.90;;;;;;2603063;54;20081;31
2022/10/23 03:52:15;;;;;;;12.88;9.95;;;9.70;99.90;;;;;;2621253;46;20026;31
2022/10/23 03:54:49;;;;;;;18.10;12.30;;;9.70;99.90;;;;;;2603313;54;20864;31
2022/10/23 03:57:23;;;;;;;14.25;10.40;;;9.70;99.90;;;;;;2603021;54;20089;31
2022/10/23 03:59:57;;;;;;;15.30;11.70;;;9.70;99.90;;;;;;2603337;54;20785;31
2022/10/23 04:02:35;;;;;;;13.88;10.52;;;10.10;99.90;;;;;;2611734;39;20454;31
2022/10/23 04:05:09;;;;;;;10.60;8.82;;;9.70;99.90;;;;;;2603070;54;20045;31
2022/10/23 04:07:48;;;;;;;18.10;11.40;;;9.60;99.90;;;;;;2603070;54;20033;31
2022/10/23 04:10:22;;;;;;;16.55;11.40;;;9.60;99.90;;;;;;2603136;54;20057;31
2022/10/23 04:12:56;;;;;;;13.55;10.93;;;9.60;99.90;;;;;;2603011;54;20053;31
2022/10/23 04:15:30;;;;;;;12.45;9.50;;;9.60;99.90;;;;;;2602944;54;20096;31
2022/10/23 04:18:04;;;;;;;10.40;8.05;;;9.50;99.90;;;;;;2609306;47;20912;31
2022/10/23 04:20:38;;;;;;;15.57;12.32;;;9.50;99.90;;;;;;2614249;47;20045;31
2022/10/23 04:23:15;;;;;;;11.18;8.02;;;9.50;99.90;;;;;;2621654;47;20144;31
2022/10/23 04:25:51;;;;;;;9.52;7.35;;;9.50;99.90;;;;;;2603088;54;20030;31
2022/10/23 04:28:29;;;;;;;8.30;6.78;;;9.50;99.90;;;;;;2603064;54;20085;31
2022/10/23 04:31:03;;;;;;;11.53;7.83;;;9.50;99.90;;;;;;2621467;47;20037;31
2022/10/23 04:33:37;;;;;;;10.77;7.63;;;9.50;99.90;;;;;;2602941;54;20896;31
2022/10/23 04:36:11;;;;;;;8.75;6.70;;;9.50;99.90;;;;;;2621154;47;20022;31
2022/10/23 04:38:49;;;;;;;8.68;6.82;;;9.40;99.90;;;;;;2621370;47;20090;31
2022/10/23 04:41:23;;;;;;;7.65;6.50;;;9.50;99.90;;;;;;2602758;54;20034;31
2022/10/23 04:43:57;;;;;;;13.00;8.88;;;9.50;99.90;;;;;;2602888;54;20081;31
2022/10/23 04:46:31;;;;;;;14.00;10.32;;;9.40;99.90;;;;;;2621215;47;20698;31
2022/10/23 04:49:05;;;;;;;9.02;7.47;;;9.40;99.90;;;;;;2603033;54;20884;31
2022/10/23 04:51:59;;;;;;;11.85;8.68;;;9.40;99.90;;;;;;2602787;54;20914;31
2022/10/23 04:54:51;;;;;;;15.40;10.57;;;9.30;99.90;;;;;;2602985;54;20084;31
2022/10/23 04:57:28;;;;;;;17.73;11.75;;;9.30;99.90;;;;;;2622372;47;20076;31
2022/10/23 05:00:15;;;;;;;11.20;8.63;;;9.30;99.90;;;;;;2603601;54;20053;31
2022/10/23 05:02:55;;;;;;;14.15;10.55;;;9.20;99.90;;;;;;2603856;54;20022;31
2022/10/23 05:05:29;;;;;;;17.55;11.73;;;9.20;99.90;;;;;;2603662;54;20053;31
2022/10/23 05:08:11;;;;;;;11.45;9.20;;;9.20;99.90;;;;;;2602895;54;20033;31
2022/10/23 05:11:10;;;;;;;12.40;8.10;;;9.20;99.90;;;;;;2617946;46;20844;31
2022/10/23 05:13:52;;;;;;;8.50;6.55;;;9.20;99.90;;;;;;2603597;54;20022;31
2022/10/23 05:16:35;;;;;;;9.63;6.20;;;9.20;99.90;;;;;;2603713;54;20077;31
2022/10/23 05:19:09;;;;;;;8.77;6.72;;;9.20;99.90;;;;;;2603666;54;20030;31
2022/10/23 05:21:44;;;;;;;12.18;8.80;;;9.10;99.90;;;;;;2603656;54;20079;31
2022/10/23 05:24:18;;;;;;;14.18;9.60;;;9.20;99.90;;;;;;2622498;46;20033;31
2022/10/23 05:27:01;;;;;;;10.95;7.60;;;9.20;99.90;;;;;;2603557;54;20034;31
2022/10/23 05:29:40;;;;;;;10.60;8.55;;;9.20;99.90;;;;;;2621652;46;20065;31
2022/10/23 05:32:15;;;;;;;9.32;6.53;;;9.40;99.90;;;;;;2603642;54;20956;31
2022/10/23 05:34:51;;;;;;;12.90;7.13;;;9.30;99.90;;;;;;2603664;54;20048;31
2022/10/23 05:37:27;;;;;;;13.57;9.40;;;9.30;99.90;;;;;;2603548;54;20891;31
2022/10/23 05:40:13;;;;;;;13.73;8.83;;;9.30;99.90;;;;;;2603474;54;20022;31
2022/10/23 05:42:50;;;;;;;9.80;8.05;;;9.30;99.90;;;;;;2603629;54;20345;31
2022/10/23 05:45:34;;;;;;;8.75;6.90;;;9.40;99.90;;;;;;2603173;54;20028;31
2022/10/23 05:48:27;;;;;;;8.93;6.67;;;9.40;99.90;;;;;;2603568;54;20918;31
2022/10/23 05:51:19;;;;;;;10.95;7.07;;;9.40;99.90;;;;;;2603504;54;20027;31
2022/10/23 05:53:59;;;;;;;12.25;8.60;;;9.40;99.90;;;;;;2603548;54;20026;31
2022/10/23 05:56:40;;;;;;;14.50;10.60;;;9.50;99.90;;;;;;2603406;54;20177;31
2022/10/23 05:59:37;;;;;;;19.15;13.57;;;9.40;99.90;;;;;;2603278;54;20910;31
2022/10/23 06:02:25;;;;;;;16.00;11.55;;;9.40;99.90;;;;;;2614106;31;21140;31
2022/10/23 06:05:07;;;;;;;12.35;9.43;;;9.40;99.90;;;;;;2603387;54;20029;31
2022/10/23 06:08:01;;;;;;;15.00;10.35;;;9.40;99.90;;;;;;2603012;54;20022;31
2022/10/23 06:10:37;;;;;;;18.17;10.77;;;9.40;99.90;;;;;;2603626;54;20743;31
2022/10/23 06:13:13;;;;;;;14.18;10.07;;;10.00;99.90;;;;;;2622116;46;20096;31
2022/10/23 06:15:47;;;;;;;10.82;7.93;;;9.50;99.90;;;;;;2603372;54;20031;31
2022/10/23 06:18:30;;;;;;;14.20;9.55;;;9.60;99.90;;;;;;2603321;54;20836;31
2022/10/23 06:21:10;;;;;;;21.45;13.35;;;9.60;99.90;;;;;;2603223;54;20916;31
2022/10/23 06:23:46;;;;;;;16.85;12.02;;;9.60;99.90;;;;;;2603514;54;20027;31
2022/10/23 06:26:29;;;;;;;12.80;10.10;;;9.60;99.90;;;;;;2603362;54;20030;31
2022/10/23 06:29:27;;;;;;;16.07;11.70;;;9.60;99.90;;;;;;2603299;54;20045;31
2022/10/23 06:32:01;;;;;;;19.77;14.15;;;9.60;99.90;;;;;;2603446;54;20249;31
2022/10/23 06:34:38;;;;;;;24.15;15.48;;;9.60;99.90;;;;;;2603646;54;20022;31
2022/10/23 06:37:14;;;;;;;21.83;14.75;;;9.70;99.90;;;;;;2621619;46;20023;31
2022/10/23 06:39:51;;;;;;;15.27;10.65;;;9.70;99.90;;;;;;2603190;54;20786;31
2022/10/23 06:42:36;;;;;;;14.40;11.10;;;9.80;99.90;;;;;;2622045;46;20884;31
2022/10/23 06:45:31;;;;;;;17.42;12.73;;;9.80;99.90;;;;;;2603292;54;20847;31
2022/10/23 06:48:20;;;;;;;15.90;11.80;;;9.90;99.90;;;;;;2603369;54;20825;31
2022/10/23 06:51:19;;;;;;;17.95;12.35;;;10.00;99.90;;;;;;2603296;54;20853;31
2022/10/23 06:53:54;;;;;;;16.25;11.65;;;10.20;99.90;;;;;;2603218;54;20030;31
2022/10/23 06:57:00;;;;;;;14.02;10.18;;;11.00;99.90;;;;;;2603287;54;20940;31
2022/10/23 06:59:49;;;;;;;13.50;10.02;;;10.70;99.90;;;;;;2603100;54;20912;31
2022/10/23 07:02:23;;;;;;;14.05;11.15;;;11.00;99.90;;;;;;2603540;54;20916;31
2022/10/23 07:04:58;;;;;;;12.43;9.40;;;11.30;99.90;;;;;;2603241;54;20877;31
2022/10/23 07:07:35;;;;;;;13.02;10.18;;;11.80;99.90;;;;;;2603233;54;20026;31
2022/10/23 07:10:10;;;;;;;15.30;9.23;;;11.90;99.90;;;;;;2603393;54;20077;31
2022/10/23 07:13:07;;;;;;;9.48;8.48;;;12.50;99.90;;;;;;2603117;54;19938;31
2022/10/23 07:15:45;;;;;;;13.40;10.35;;;13.60;99.90;;;;;;2603439;54;20831;31
2022/10/23 07:18:25;;;;;;;12.73;10.37;;;13.50;99.90;;;;;;2603304;54;20023;31
2022/10/23 07:21:19;;;;;;;15.75;10.30;;;13.90;99.90;;;;;;2603194;54;19961;31
2022/10/23 07:23:57;;;;;;;12.13;9.90;;;14.40;99.90;;;;;;2603272;54;20033;31
2022/10/23 07:26:33;;;;;;;11.50;9.45;;;14.30;99.90;;;;;;2603388;54;20875;31
2022/10/23 07:29:08;;;;;;;14.83;10.77;;;14.60;99.90;;;;;;2603240;54;20062;31
2022/10/23 07:31:42;;;;;;;14.13;9.63;;;14.80;99.90;;;;;;2617312;46;20313;31
2022/10/23 07:34:45;;;;;;;13.00;10.75;;;15.10;99.90;;;;;;2603434;54;20790;31
2022/10/23 07:37:30;;;;;;;14.75;11.30;;;15.80;99.90;;;;;;2603276;54;20022;31
2022/10/23 07:40:11;;;;;;;13.65;10.70;;;15.90;99.90;;;;;;2603143;54;20940;31
2022/10/23 07:42:50;;;;;;;14.25;11.30;;;16.20;99.90;;;;;;2603249;54;20034;31
2022/10/23 07:45:24;;;;;;;13.63;10.43;;;16.60;99.90;;;;;;2603150;54;20057;31
2022/10/23 07:47:59;;;;;;;13.30;10.13;;;16.80;99.90;;;;;;2603262;54;20837;31
2022/10/23 07:50:46;;;;;;;11.25;9.70;;;16.60;99.90;;;;;;2603411;54;20022;31
2022/10/23 07:53:21;;;;;;;16.50;10.55;;;16.80;99.90;;;;;;2603036;54;20903;31
2022/10/23 07:56:01;;;;;;;13.45;11.38;;;16.80;99.90;;;;;;2603153;54;20034;31
2022/10/23 07:58:55;;;;;;;10.32;9.00;;;17.10;99.90;;;;;;2603161;54;20915;31
2022/10/23 08:01:32;;;;;;;13.23;9.60;;;16.90;99.90;;;;;;2603067;54;20022;31
2022/10/23 08:04:06;;;;;;;9.93;8.68;;;16.90;99.90;;;;;;2603092;54;20027;31
2022/10/23 08:06:44;;;;;;;11.77;9.07;;;16.90;99.90;;;;;;2603104;54;20070;31
2022/10/23 08:09:19;;;;;;;10.82;9.25;;;17.00;99.90;;;;;;2603013;54;20046;31
2022/10/23 08:11:57;;;;;;;10.75;9.07;;;17.00;99.90;;;;;;2602967;54;20978;31
2022/10/23 08:14:33;;;;;;;9.85;7.60;;;17.00;99.90;;;;;;2602928;54;20113;31
2022/10/23 08:17:08;;;;;;;8.30;7.28;;;17.00;99.90;;;;;;2602984;54;20022;31
2022/10/23 08:20:12;;;;;;;9.30;6.63;;;17.00;99.90;;;;;;2602725;54;20019;31
2022/10/23 08:22:49;;;;;;;6.55;5.85;;;17.20;99.90;;;;;;2603058;54;20945;31
2022/10/23 08:25:29;;;;;;;8.13;6.68;;;17.50;99.90;;;;;;2602952;54;20030;31
2022/10/23 08:28:07;;;;;;;8.90;5.93;;;17.60;99.90;;;;;;2602809;54;20973;31
2022/10/23 08:30:49;;;;;;;;;;;17.90;99.90;;;;;;2603507;54;20871;31
2022/10/23 08:33:25;;;;;;;5.57;4.30;;;18.10;99.90;;;;;;2603679;54;19942;31
2022/10/23 08:36:00;;;;;;;8.85;5.30;;;18.50;99.90;;;;;;2603784;54;20023;31
2022/10/23 08:38:40;;;;;;;6.00;4.80;;;18.70;99.90;;;;;;2603974;54;20051;31
2022/10/23 08:41:25;;;;;;;5.20;4.23;;;18.70;99.90;;;;;;2603844;54;25136;31
2022/10/23 08:44:16;;;;;;;5.45;3.40;;;19.10;99.90;;;;;;2603867;54;20076;31
2022/10/23 08:46:57;;;;;;;5.63;4.43;;;19.20;99.90;;;;;;2603974;54;20060;31
2022/10/23 08:49:49;;;;;;;5.50;4.05;;;19.30;99.90;;;;;;2603855;54;20053;31
2022/10/23 08:52:27;;;;;;;5.57;4.10;;;19.60;99.90;;;;;;2603890;54;20794;31
2022/10/23 08:55:06;;;;;;;6.03;4.18;;;19.70;99.90;;;;;;2608998;46;20972;31
2022/10/23 08:57:43;;;;;;;5.50;4.40;;;19.70;99.90;;;;;;2604519;46;20034;31
2022/10/23 09:00:21;;;;;;;5.63;4.10;;;19.70;99.90;;;;;;2603779;54;20117;31
2022/10/23 09:02:56;;;;;;;6.43;4.40;;;20.00;99.90;;;;;;2603718;54;20034;31
2022/10/23 09:05:32;;;;;;;5.13;3.90;;;20.20;99.90;;;;;;2603878;54;20026;31
2022/10/23 09:08:15;;;;;;;3.95;3.55;;;20.40;99.90;;;;;;2603838;54;20316;31
2022/10/23 09:11:03;;;;;;;4.60;3.60;;;20.50;99.90;;;;;;2603693;54;20049;31
2022/10/23 09:14:03;;;;;;;5.53;4.47;;;20.70;99.90;;;;;;2603618;54;20888;31
2022/10/23 09:16:45;;;;;;;6.15;3.80;;;20.70;99.90;;;;;;2622442;46;20897;31
2022/10/23 09:19:23;;;;;;;7.53;3.93;;;20.90;99.90;;;;;;2603756;54;20022;31
2022/10/23 09:21:57;;;;;;;6.00;4.20;;;21.10;99.90;;;;;;2602761;54;20030;31
2022/10/23 09:24:33;;;;;;;6.10;4.50;;;21.20;99.90;;;;;;2603580;54;20977;31
2022/10/23 09:27:10;;;;;;;6.43;3.95;;;21.40;99.90;;;;;;2608735;46;20041;31
2022/10/23 09:29:49;;;;;;;5.05;3.60;;;21.50;99.90;;;;;;2608783;46;20034;31
2022/10/23 09:32:37;;;;;;;8.02;3.83;;;21.60;99.90;;;;;;2603677;54;20030;31
2022/10/23 09:35:23;;;;;;;4.70;3.70;;;21.80;99.90;;;;;;2622457;46;20905;31
2022/10/23 09:37:58;;;;;;;5.43;3.53;;;21.90;99.90;;;;;;2603537;54;20033;31
2022/10/23 09:40:35;;;;;;;4.93;3.55;;;22.20;99.90;;;;;;2603638;54;21304;31
2022/10/23 09:43:16;;;;;;;7.15;3.38;;;21.90;99.90;;;;;;2604548;46;20902;31
2022/10/23 09:48:24;;;;;;;4.15;3.63;;;21.80;99.90;;;;;;2603518;54;20932;31
2022/10/23 09:51:01;;;;;;;3.70;2.70;;;21.80;99.90;;;;;;2603375;54;20153;31
2022/10/23 09:53:36;;;;;;;7.00;3.70;;;21.80;99.90;;;;;;2603443;54;20064;31
2022/10/23 09:56:27;;;;;;;4.38;3.47;;;21.80;99.90;;;;;;2603562;54;20925;31
2022/10/23 09:59:02;;;;;;;4.70;3.60;;;21.70;99.90;;;;;;2603640;54;20917;31
2022/10/23 10:01:45;;;;;;;4.57;2.72;;;21.50;99.90;;;;;;2603645;54;20779;31
2022/10/23 10:04:43;;;;;;;3.95;3.15;;;21.50;99.90;;;;;;2603475;54;20979;31
2022/10/23 10:07:21;;;;;;;4.17;2.67;;;21.30;99.90;;;;;;2603506;54;20026;31
2022/10/23 10:09:55;;;;;;;3.88;2.78;;;21.30;99.90;;;;;;2603797;54;20830;31
2022/10/23 10:12:42;;;;;;;3.15;2.85;;;21.30;99.90;;;;;;2603364;54;20050;31
2022/10/23 10:15:25;;;;;;;3.67;2.63;;;21.40;99.90;;;;;;2603486;54;20038;31
2022/10/23 10:18:04;;;;;;;3.53;2.33;;;21.70;99.90;;;;;;2603525;54;20027;31
2022/10/23 10:23:16;;;;;;;2.92;2.20;;;21.40;99.90;;;;;;2603563;54;20053;31
2022/10/23 10:25:56;;;;;;;3.88;2.30;;;21.50;99.90;;;;;;2603578;54;20121;31
2022/10/23 10:28:35;;;;;;;4.53;2.50;;;21.40;99.90;;;;;;2603692;54;20033;31
2022/10/23 10:31:13;;;;;;;5.35;2.50;;;21.40;99.90;;;;;;2603176;54;19989;31
2022/10/23 10:33:51;;;;;;;3.80;1.90;;;21.20;99.90;;;;;;2604553;46;20029;31
2022/10/23 10:36:34;;;;;;;5.15;3.40;;;21.10;99.90;;;;;;2603663;54;20057;31
2022/10/23 10:39:17;;;;;;;3.08;2.70;;;21.00;99.90;;;;;;2603351;54;20907;31
2022/10/23 10:41:56;;;;;;;4.07;2.50;;;20.80;99.90;;;;;;2603395;54;20912;31
2022/10/23 10:44:39;;;;;;;5.28;3.15;;;20.60;99.90;;;;;;2603559;54;20056;31
2022/10/23 10:47:13;;;;;;;5.40;2.75;;;20.60;99.90;;;;;;2603604;54;20030;31
2022/10/23 10:50:06;;;;;;;7.67;3.00;;;20.50;99.90;;;;;;2603457;54;20022;31
2022/10/23 10:53:03;;;;;;;5.83;2.63;;;20.50;99.90;;;;;;2603225;54;20831;31
2022/10/23 10:55:43;;;;;;;3.90;2.90;;;20.30;99.90;;;;;;2603360;54;20246;31
2022/10/23 10:58:22;;;;;;;7.23;2.70;;;20.20;99.90;;;;;;2603500;54;20027;31
2022/10/23 11:00:56;;;;;;;5.18;2.63;;;20.30;99.90;;;;;;2604071;46;20048;31
2022/10/23 11:03:36;;;;;;;4.63;2.63;;;20.30;99.90;;;;;;2602813;54;21123;31
2022/10/23 11:06:15;;;;;;;5.38;3.28;;;20.30;99.90;;;;;;2621829;46;20341;31
2022/10/23 11:08:51;;;;;;;5.38;3.40;;;20.40;99.90;;;;;;2603237;54;20081;31
2022/10/23 11:11:46;;;;;;;4.90;2.90;;;20.30;99.90;;;;;;2603936;46;20115;31
2022/10/23 11:14:21;;;;;;;3.85;2.47;;;20.30;99.90;;;;;;2603297;54;20042;31
2022/10/23 11:16:59;;;;;;;5.55;2.72;;;20.30;99.90;;;;;;2603091;54;20819;31
2022/10/23 11:19:36;;;;;;;5.70;2.85;;;20.30;99.90;;;;;;2603269;54;19996;31
2022/10/23 11:22:13;;;;;;;6.65;3.60;;;20.20;99.90;;;;;;2603218;54;20031;31
2022/10/23 11:25:23;;;;;;;7.77;3.10;;;20.10;99.90;;;;;;2603064;54;20057;31
2022/10/23 11:28:08;;;;;;;6.47;3.25;;;20.10;99.90;;;;;;2603016;54;20785;31
2022/10/23 11:30:49;;;;;;;4.90;3.40;;;20.30;99.90;;;;;;2603337;54;20019;31
2022/10/23 11:33:53;;;;;;;6.85;2.90;;;20.10;99.90;;;;;;2622052;46;20069;31
2022/10/23 11:36:25;;;;;;;6.15;2.97;;;20.00;99.90;;;;;;2602959;54;20038;31
2022/10/23 11:39:16;;;;;;;5.50;2.90;;;20.00;99.90;;;;;;2603125;54;20026;31
2022/10/23 11:41:55;;;;;;;6.00;4.00;;;20.10;99.90;;;;;;2602926;54;20026;31
2022/10/23 11:44:51;;;;;;;4.90;3.55;;;20.00;99.90;;;;;;2603342;54;20042;31
2022/10/23 11:47:34;;;;;;;4.00;3.05;;;20.00;99.90;;;;;;2603012;54;20093;31
2022/10/23 11:50:17;;;;;;;5.10;3.30;;;19.90;99.90;;;;;;2602807;54;20802;31
2022/10/23 11:52:57;;;;;;;6.20;3.80;;;19.90;99.90;;;;;;2621289;46;21060;31
2022/10/23 11:56:02;;;;;;;4.45;3.50;;;19.80;99.90;;;;;;2603225;54;19935;31
2022/10/23 11:58:45;;;;;;;4.97;3.50;;;19.70;99.90;;;;;;2603249;54;20050;31
2022/10/23 12:01:33;;;;;;;8.60;3.95;;;19.60;99.90;;;;;;2602936;54;20306;31
2022/10/23 12:04:17;;;;;;;5.70;3.90;;;19.50;99.90;;;;;;2621569;46;20058;31
2022/10/23 12:06:52;;;;;;;6.37;4.57;;;19.50;99.90;;;;;;2602960;54;25099;31
2022/10/23 12:09:37;;;;;;;6.75;3.65;;;19.40;99.90;;;;;;2603112;54;20033;31
2022/10/23 12:12:17;;;;;;;4.80;3.75;;;19.40;99.90;;;;;;2603396;54;20868;31
2022/10/23 12:14:52;;;;;;;9.93;4.53;;;19.30;99.90;;;;;;2604223;54;20853;31
2022/10/23 12:17:37;;;;;;;9.82;4.82;;;19.30;99.90;;;;;;2603949;47;20767;31
2022/10/23 12:20:30;;;;;;;11.97;4.43;;;19.30;99.90;;;;;;2603155;54;20042;31
2022/10/23 12:23:31;;;;;;;5.75;4.55;;;19.20;99.90;;;;;;2602921;54;20838;31
2022/10/23 12:26:27;;;;;;;6.40;4.80;;;19.10;99.90;;;;;;2603280;54;20872;31
2022/10/23 12:29:03;;;;;;;9.50;4.15;;;19.10;99.90;;;;;;2608444;47;20022;31
2022/10/23 12:31:42;;;;;;;9.63;5.63;;;18.80;99.90;;;;;;2604462;54;20022;31
2022/10/23 12:37:15;;;;;;;9.77;4.70;;;19.00;99.90;;;;;;2603157;54;20023;31
2022/10/23 12:39:54;;;;;;;5.82;4.50;;;18.90;99.90;;;;;;2602839;54;20026;31
2022/10/23 12:42:30;;;;;;;8.52;4.57;;;19.10;99.90;;;;;;2612442;47;20862;31
2022/10/23 12:45:07;;;;;;;5.50;3.97;;;18.80;99.90;;;;;;2603115;54;20837;31
2022/10/23 12:47:42;;;;;;;6.45;5.15;;;18.90;99.90;;;;;;2621520;47;20022;31
2022/10/23 12:50:20;;;;;;;7.60;5.35;;;18.80;99.90;;;;;;2608011;47;20089;31
2022/10/23 12:52:59;;;;;;;7.65;4.90;;;18.80;99.90;;;;;;2602905;54;20839;31
2022/10/23 12:55:50;;;;;;;10.60;4.40;;;18.80;99.90;;;;;;2602896;54;20243;31
2022/10/23 12:58:29;;;;;;;7.85;5.28;;;18.80;99.90;;;;;;2602855;54;21014;31
2022/10/23 13:01:06;;;;;;;6.78;4.53;;;18.80;99.90;;;;;;2602848;54;20100;31
2022/10/23 13:03:41;;;;;;;6.97;5.17;;;18.80;99.90;;;;;;2602965;54;20030;31
2022/10/23 13:06:18;;;;;;;7.30;4.60;;;18.80;99.90;;;;;;2603015;54;20049;31
2022/10/23 13:08:56;;;;;;;8.40;5.20;;;18.80;99.90;;;;;;2602718;54;20033;31
2022/10/23 13:11:44;;;;;;;7.85;4.50;;;18.80;99.90;;;;;;2621284;47;20065;31
2022/10/23 13:14:31;;;;;;;10.93;5.25;;;18.70;99.90;;;;;;2603092;54;20033;31
2022/10/23 13:17:05;;;;;;;8.35;6.80;;;18.80;99.90;;;;;;2621682;47;20833;31
2022/10/23 13:19:42;;;;;;;12.55;7.75;;;18.70;99.90;;;;;;2603621;54;20900;31
2022/10/23 13:22:20;;;;;;;9.50;6.93;;;18.70;99.90;;;;;;2603805;54;20832;31
2022/10/23 13:24:58;;;;;;;11.73;6.10;;;18.70;99.90;;;;;;2603448;54;20242;31
2022/10/23 13:27:34;;;;;;;6.32;4.90;;;18.70;99.90;;;;;;2603576;54;20092;31
2022/10/23 13:30:31;;;;;;;7.28;4.78;;;18.70;99.90;;;;;;2603737;54;20837;31
2022/10/23 13:33:16;;;;;;;7.35;4.18;;;18.70;99.90;;;;;;2603573;54;20054;31
2022/10/23 13:35:58;;;;;;;6.13;4.43;;;18.70;99.90;;;;;;2603718;54;20042;31
2022/10/23 13:38:34;;;;;;;5.30;3.90;;;18.60;99.90;;;;;;2603578;54;20251;31
2022/10/23 13:41:09;;;;;;;7.07;4.03;;;18.80;99.90;;;;;;2603743;54;20030;31
2022/10/23 13:43:48;;;;;;;6.93;4.55;;;18.70;99.90;;;;;;2603783;54;20026;31
2022/10/23 13:46:24;;;;;;;7.40;4.00;;;18.60;99.90;;;;;;2602904;54;20030;31
2022/10/23 13:48:59;;;;;;;5.82;4.05;;;18.60;99.90;;;;;;2602842;54;20030;31
2022/10/23 13:51:37;;;;;;;6.03;4.10;;;18.60;99.90;;;;;;2604357;46;20046;31
2022/10/23 13:54:17;;;;;;;7.93;4.73;;;18.60;99.90;;;;;;2603503;54;20869;31
2022/10/23 13:56:52;;;;;;;6.65;4.07;;;18.60;99.90;;;;;;2603582;54;20026;31
2022/10/23 13:59:31;;;;;;;5.68;4.03;;;18.60;99.90;;;;;;2603606;54;20748;31
2022/10/23 14:02:08;;;;;;;8.60;4.10;;;18.60;99.90;;;;;;2603464;54;20029;31
2022/10/23 14:04:43;;;;;;;5.87;3.80;;;18.60;99.90;;;;;;2603421;54;20022;31
2022/10/23 14:07:18;;;;;;;5.22;3.58;;;18.60;99.90;;;;;;2603488;54;20034;31
2022/10/23 14:09:53;;;;;;;6.10;3.75;;;18.60;99.90;;;;;;2603592;54;20029;31
2022/10/23 14:12:29;;;;;;;7.00;4.00;;;18.60;99.90;;;;;;2603450;54;20765;31